Time;durP1;ratioP1;P1;durP2;ratioP2;P2;SDS_P1;SDS_P2;PMS_P1;PMS_P2;Temp;Humidity;BMP_temperature;BMP_pressure;BME280_temperature;BME280_humidity;BME280_pressure;Samples;Min_cycle;Max_cycle;Signal;HPM_P1;HPM_P2
2022/01/18 00:01:30;;;;;;;27.03;5.13;;;0.20;99.90;;;;;;5146051;28;20459;-50
2022/01/18 00:04:00;;;;;;;38.57;5.07;;;0.20;99.90;;;;;;5136665;28;20440;-48
2022/01/18 00:06:31;;;;;;;14.03;4.23;;;0.20;99.90;;;;;;5145047;28;20942;-49
2022/01/18 00:09:01;;;;;;;30.80;6.50;;;0.20;99.90;;;;;;5132538;28;20206;-50
2022/01/18 00:11:40;;;;;;;22.30;4.80;;;0.20;99.90;;;;;;5145134;28;20527;-49
2022/01/18 00:14:24;;;;;;;30.97;7.97;;;0.10;99.90;;;;;;5143881;28;20264;-48
2022/01/18 00:17:05;;;;;;;46.23;6.80;;;0.20;99.90;;;;;;5144747;28;20443;-50
2022/01/18 00:19:40;;;;;;;22.30;5.10;;;0.20;99.90;;;;;;5138531;28;20465;-49
2022/01/18 00:22:12;;;;;;;24.53;5.80;;;0.20;99.90;;;;;;5144717;28;20434;-49
2022/01/18 00:24:43;;;;;;;21.80;5.63;;;0.20;99.90;;;;;;5145184;28;20474;-49
2022/01/18 00:27:16;;;;;;;33.20;5.40;;;0.20;99.90;;;;;;5127198;28;20934;-48
2022/01/18 00:30:03;;;;;;;18.27;4.10;;;0.10;99.90;;;;;;5135015;28;20428;-50
2022/01/18 00:35:14;;;;;;;24.17;5.43;;;0.20;99.90;;;;;;5145342;28;20510;-48
2022/01/18 00:37:52;;;;;;;33.00;5.00;;;0.10;99.90;;;;;;5139402;28;20469;-50
2022/01/18 00:40:23;;;;;;;35.37;6.00;;;0.10;99.90;;;;;;5149116;28;20538;-48
2022/01/18 00:42:54;;;;;;;30.83;6.43;;;0.10;99.90;;;;;;5148084;28;20436;-49
2022/01/18 00:45:24;;;;;;;41.50;5.03;;;0.10;99.90;;;;;;5143565;28;20202;-49
2022/01/18 00:47:56;;;;;;;24.23;4.93;;;0.10;99.90;;;;;;5139186;28;20304;-51
2022/01/18 00:50:30;;;;;;;34.60;4.33;;;0.10;99.90;;;;;;5146380;28;20188;-51
2022/01/18 00:53:05;;;;;;;34.93;5.77;;;0.00;99.90;;;;;;5131376;28;20443;-48
2022/01/18 00:55:47;;;;;;;35.73;5.47;;;0.00;99.90;;;;;;5148804;28;20433;-49
2022/01/18 00:58:17;;;;;;;42.57;5.63;;;0.00;99.90;;;;;;5147517;28;20454;-50
2022/01/18 01:00:50;;;;;;;29.17;5.50;;;0.00;99.90;;;;;;5130906;28;20500;-48
2022/01/18 01:03:21;;;;;;;37.73;5.13;;;-0.10;99.90;;;;;;5130636;28;20182;-48
2022/01/18 01:05:52;;;;;;;33.53;5.03;;;0.00;99.90;;;;;;5148430;28;20573;-49
2022/01/18 01:08:26;;;;;;;38.80;6.37;;;-0.10;99.90;;;;;;5152237;28;20661;-48
2022/01/18 01:10:57;;;;;;;42.67;7.10;;;-0.10;99.90;;;;;;5143999;28;20276;-48
2022/01/18 01:13:30;;;;;;;27.03;5.17;;;-0.10;99.90;;;;;;5146762;28;20439;-48
2022/01/18 01:16:47;;;;;;;14.43;4.93;;;-0.10;99.90;;;;;;5129911;28;20433;-48
2022/01/18 01:44:19;;;;;;;30.83;6.27;;;-0.30;99.90;;;;;;5138908;28;20468;-49
2022/01/18 01:46:50;;;;;;;28.23;5.43;;;-0.30;99.90;;;;;;5147252;28;20437;-48
2022/01/18 01:49:23;;;;;;;15.40;5.47;;;-0.30;99.90;;;;;;5147495;28;20496;-48
2022/01/18 01:51:54;;;;;;;27.13;6.30;;;-0.30;99.90;;;;;;5139181;28;20568;-48
2022/01/18 01:54:24;;;;;;;29.43;6.43;;;-0.40;99.90;;;;;;5147342;28;20567;-49
2022/01/18 01:56:55;;;;;;;34.57;6.17;;;-0.40;99.90;;;;;;5143125;28;20193;-49
2022/01/18 01:59:26;;;;;;;28.77;5.20;;;-0.30;99.90;;;;;;5134986;28;20665;-49
2022/01/18 02:01:56;;;;;;;31.60;6.07;;;-0.40;99.90;;;;;;5146973;28;20193;-47
2022/01/18 02:04:27;;;;;;;26.10;6.20;;;-0.40;99.90;;;;;;5143088;28;20576;-48
2022/01/18 02:06:57;;;;;;;34.83;6.47;;;-0.40;99.90;;;;;;5116444;28;20631;-48
2022/01/18 02:09:28;;;;;;;32.83;6.57;;;-0.40;99.90;;;;;;5146494;28;20217;-48
2022/01/18 02:12:00;;;;;;;28.30;4.67;;;-0.40;99.90;;;;;;5139727;28;20194;-48
2022/01/18 02:14:32;;;;;;;28.93;6.80;;;-0.40;99.90;;;;;;5145580;28;20182;-49
2022/01/18 02:22:41;;;;;;;20.13;5.03;;;-0.50;99.90;;;;;;5144814;28;20436;-47
2022/01/18 02:25:12;;;;;;;20.13;7.37;;;-0.50;99.90;;;;;;5129325;28;20836;-47
2022/01/18 02:27:42;;;;;;;42.23;5.40;;;-0.50;99.90;;;;;;5127929;28;20193;-49
2022/01/18 02:30:13;;;;;;;26.80;5.20;;;-0.60;99.90;;;;;;5122445;28;20559;-47
2022/01/18 02:32:43;;;;;;;33.33;6.00;;;-0.50;99.90;;;;;;5119835;28;20197;-47
2022/01/18 02:35:14;;;;;;;32.70;5.40;;;-0.50;99.90;;;;;;5144614;28;20203;-47
2022/01/18 02:37:51;;;;;;;27.20;5.87;;;-0.50;99.90;;;;;;5143666;28;20277;-48
2022/01/18 02:40:22;;;;;;;21.93;6.00;;;-0.50;99.90;;;;;;5120095;28;20253;-49
2022/01/18 02:42:59;;;;;;;44.77;6.40;;;-0.50;99.90;;;;;;5127667;28;20449;-49
2022/01/18 02:45:30;;;;;;;31.03;6.53;;;-0.50;99.90;;;;;;5144528;28;20177;-47
2022/01/18 02:48:01;;;;;;;28.33;6.13;;;-0.50;99.90;;;;;;5141470;28;20462;-49
2022/01/18 02:50:31;;;;;;;27.57;5.10;;;-0.60;99.90;;;;;;5124902;28;20236;-48
2022/01/18 02:53:02;;;;;;;26.60;4.90;;;-0.50;99.90;;;;;;5125841;28;20186;-49
2022/01/18 02:55:32;;;;;;;32.50;6.33;;;-0.60;99.90;;;;;;5145088;28;20560;-48
2022/01/18 02:58:08;;;;;;;32.27;5.63;;;-0.60;99.90;;;;;;5139822;28;20216;-48
2022/01/18 03:03:11;;;;;;;27.60;6.47;;;-0.60;99.90;;;;;;5134804;28;20213;-47
2022/01/18 03:03:37;;;;;;;30.33;5.43;;;-0.60;99.90;;;;;;5135630;28;20409;-49
2022/01/18 03:06:08;;;;;;;30.83;5.97;;;-0.60;99.90;;;;;;5129212;28;20848;-50
2022/01/18 03:08:38;;;;;;;30.00;5.23;;;-0.60;99.90;;;;;;5135321;28;20460;-49
2022/01/18 03:11:09;;;;;;;29.83;5.93;;;-0.60;99.90;;;;;;5128671;28;20817;-48
2022/01/18 03:13:39;;;;;;;28.97;5.10;;;-0.60;99.90;;;;;;5145602;28;20713;-49
2022/01/18 03:16:10;;;;;;;52.77;6.87;;;-0.60;99.90;;;;;;5116735;28;20190;-49
2022/01/18 03:18:40;;;;;;;29.07;5.40;;;-0.60;99.90;;;;;;5144444;28;20320;-48
2022/01/18 03:21:11;;;;;;;35.03;5.93;;;-0.60;99.90;;;;;;5123216;28;20267;-49
2022/01/18 03:23:42;;;;;;;32.83;6.50;;;-0.60;99.90;;;;;;5124232;28;20286;-50
2022/01/18 03:26:16;;;;;;;35.13;5.43;;;-0.60;99.90;;;;;;5144835;28;20182;-49
2022/01/18 03:28:46;;;;;;;29.13;4.80;;;-0.60;99.90;;;;;;5153684;28;20217;-48
2022/01/18 03:31:17;;;;;;;32.63;6.37;;;-0.60;99.90;;;;;;5145002;28;20925;-49
2022/01/18 03:33:47;;;;;;;24.63;4.73;;;-0.50;99.90;;;;;;5135563;28;20220;-48
2022/01/18 03:36:18;;;;;;;37.80;4.73;;;-0.50;99.90;;;;;;5146083;28;20190;-47
2022/01/18 03:38:48;;;;;;;35.70;5.73;;;-0.40;99.90;;;;;;5045101;28;2958902;-45
2022/01/18 03:41:19;;;;;;;23.37;5.20;;;-0.50;99.90;;;;;;5145214;28;20565;-47
2022/01/18 03:43:49;;;;;;;27.70;4.73;;;-0.50;99.90;;;;;;5141163;28;20237;-50
2022/01/18 03:46:20;;;;;;;32.80;5.93;;;-0.50;99.90;;;;;;5125134;28;20216;-48
2022/01/18 03:48:51;;;;;;;38.80;6.13;;;-0.40;99.90;;;;;;5145300;28;20781;-47
2022/01/18 03:51:22;;;;;;;35.93;6.67;;;-0.40;99.90;;;;;;5127398;28;20209;-49
2022/01/18 03:53:52;;;;;;;33.87;6.70;;;-0.40;99.90;;;;;;5121306;28;20484;-47
2022/01/18 03:56:26;;;;;;;26.90;5.33;;;-0.40;99.90;;;;;;5142583;28;20279;-48
2022/01/18 03:58:56;;;;;;;25.40;6.00;;;-0.40;99.90;;;;;;5123661;28;20202;-47
2022/01/18 04:01:27;;;;;;;30.13;5.87;;;-0.40;99.90;;;;;;5141458;28;20975;-48
2022/01/18 04:03:58;;;;;;;40.47;5.27;;;-0.40;99.90;;;;;;5140962;28;20209;-48
2022/01/18 04:06:28;;;;;;;20.10;4.97;;;-0.40;99.90;;;;;;5129987;28;20208;-48
2022/01/18 04:09:03;;;;;;;21.17;5.53;;;-0.50;99.90;;;;;;5146471;28;20205;-47
2022/01/18 04:11:34;;;;;;;18.20;4.83;;;-0.50;99.90;;;;;;5142338;28;20556;-47
2022/01/18 04:14:04;;;;;;;32.70;5.33;;;-0.50;99.90;;;;;;5130127;28;20437;-46
2022/01/18 04:16:55;;;;;;;29.93;5.60;;;-0.50;99.90;;;;;;5132092;28;20192;-48
2022/01/18 04:28:09;;;;;;;29.60;5.30;;;-0.60;99.90;;;;;;5147006;28;20452;-47
2022/01/18 04:30:40;;;;;;;37.80;6.33;;;-0.50;99.90;;;;;;5133348;28;20445;-48
2022/01/18 04:33:10;;;;;;;17.80;5.80;;;-0.50;99.90;;;;;;5143015;28;20987;-47
2022/01/18 04:35:41;;;;;;;20.37;4.60;;;-0.40;99.90;;;;;;5147351;28;20186;-48
2022/01/18 04:38:13;;;;;;;19.13;4.73;;;-0.30;99.90;;;;;;5136758;28;20294;-47
2022/01/18 04:40:45;;;;;;;24.73;5.50;;;-0.20;99.90;;;;;;5148777;28;20213;-48
2022/01/18 04:48:55;;;;;;;41.70;6.43;;;0.10;99.90;;;;;;5146954;28;20510;-47
2022/01/18 04:51:26;;;;;;;17.20;4.87;;;0.10;99.90;;;;;;5129240;28;20438;-48
2022/01/18 04:53:59;;;;;;;24.60;6.10;;;0.20;99.90;;;;;;5130419;28;20208;-48
2022/01/18 04:59:09;;;;;;;19.80;4.47;;;0.30;99.90;;;;;;5148983;28;20453;-47
2022/01/18 05:01:42;;;;;;;24.40;4.80;;;0.40;99.90;;;;;;5131169;28;20421;-48
2022/01/18 05:04:12;;;;;;;34.33;6.67;;;0.40;99.90;;;;;;5142339;28;20421;-48
2022/01/18 05:06:44;;;;;;;30.23;4.97;;;0.50;99.90;;;;;;5147121;28;20437;-48
2022/01/18 05:09:14;;;;;;;30.33;4.40;;;0.50;99.90;;;;;;5148718;28;20201;-47
2022/01/18 05:11:55;;;;;;;29.93;5.63;;;0.60;99.90;;;;;;5138888;28;20949;-48
2022/01/18 05:14:29;;;;;;;20.67;5.50;;;0.60;99.90;;;;;;5131242;28;20185;-47
2022/01/18 05:19:46;;;;;;;15.27;4.63;;;0.60;99.90;;;;;;5149033;28;20460;-48
2022/01/18 05:25:06;;;;;;;30.73;5.27;;;0.60;99.90;;;;;;5142401;28;20432;-48
2022/01/18 05:27:36;;;;;;;28.30;5.20;;;0.60;99.90;;;;;;5147050;28;20436;-48
2022/01/18 05:30:07;;;;;;;29.23;4.77;;;0.60;99.90;;;;;;5130676;28;20180;-50
2022/01/18 05:32:37;;;;;;;28.53;4.53;;;0.70;99.90;;;;;;5130004;28;20717;-48
2022/01/18 05:35:11;;;;;;;33.27;5.60;;;0.70;99.90;;;;;;5148189;28;20449;-48
2022/01/18 05:37:42;;;;;;;28.47;4.80;;;0.70;99.90;;;;;;5119596;28;20323;-49
2022/01/18 05:40:13;;;;;;;16.13;5.37;;;0.80;99.90;;;;;;5147510;28;20465;-48
2022/01/18 05:42:45;;;;;;;33.97;5.20;;;0.90;99.90;;;;;;5149133;28;20440;-47
2022/01/18 05:45:16;;;;;;;28.40;5.13;;;0.90;99.90;;;;;;5147900;28;20440;-47
2022/01/18 05:47:49;;;;;;;27.37;5.40;;;0.80;99.90;;;;;;5148396;28;20449;-49
2022/01/18 05:50:20;;;;;;;34.77;5.73;;;0.80;99.90;;;;;;5136876;28;20891;-47
2022/01/18 05:52:50;;;;;;;26.47;5.13;;;0.80;99.90;;;;;;5132218;28;20440;-47
2022/01/18 05:55:21;;;;;;;28.30;5.37;;;0.80;99.90;;;;;;5134055;28;20197;-48
2022/01/18 05:57:51;;;;;;;21.43;5.33;;;0.80;99.90;;;;;;5150782;28;20209;-47
2022/01/18 06:00:24;;;;;;;24.37;4.20;;;0.70;99.90;;;;;;5128642;28;20216;-48
2022/01/18 06:08:20;;;;;;;24.03;4.57;;;0.50;99.90;;;;;;5145777;28;20535;-47
2022/01/18 06:10:51;;;;;;;24.17;5.07;;;0.40;99.90;;;;;;5143059;28;20536;-49
2022/01/18 06:13:21;;;;;;;44.87;6.60;;;0.30;99.90;;;;;;5134325;28;20182;-47
2022/01/18 06:15:52;;;;;;;27.00;6.20;;;0.30;99.90;;;;;;5146432;28;20693;-48
2022/01/18 06:18:22;;;;;;;31.63;6.47;;;0.20;99.90;;;;;;5145823;28;20249;-48
2022/01/18 06:20:53;;;;;;;37.23;5.70;;;0.20;99.90;;;;;;5136252;28;20750;-48
2022/01/18 06:23:24;;;;;;;24.47;4.67;;;0.10;99.90;;;;;;5141561;28;21185;-47
2022/01/18 06:25:55;;;;;;;28.47;4.20;;;0.10;99.90;;;;;;5125167;28;20185;-48
2022/01/18 06:28:26;;;;;;;25.93;4.87;;;0.00;99.90;;;;;;5115669;28;20469;-48
2022/01/18 06:30:56;;;;;;;30.47;6.17;;;0.00;99.90;;;;;;5133674;28;20461;-46
2022/01/18 06:33:30;;;;;;;26.60;5.40;;;0.00;99.90;;;;;;5139349;28;20202;-48
2022/01/18 06:36:00;;;;;;;37.27;6.33;;;-0.10;99.90;;;;;;5132752;28;20217;-48
2022/01/18 06:38:31;;;;;;;17.63;5.00;;;0.00;99.90;;;;;;5123349;28;20465;-48
2022/01/18 06:41:05;;;;;;;28.60;5.40;;;-0.10;99.90;;;;;;5142533;28;20217;-48
2022/01/18 06:43:35;;;;;;;21.10;4.80;;;0.00;99.90;;;;;;5142046;28;20178;-47
2022/01/18 06:46:06;;;;;;;24.30;4.50;;;0.00;99.90;;;;;;5124428;28;20968;-48
2022/01/18 06:48:37;;;;;;;25.23;4.63;;;0.00;99.90;;;;;;5141565;28;20204;-48
2022/01/18 06:51:09;;;;;;;21.80;5.00;;;0.00;99.90;;;;;;5139363;28;20189;-48
2022/01/18 06:53:45;;;;;;;44.30;6.73;;;0.00;99.90;;;;;;5136983;28;20528;-47
2022/01/18 06:56:17;;;;;;;43.07;6.40;;;0.00;99.90;;;;;;5145592;28;20434;-48
2022/01/18 06:58:48;;;;;;;46.13;6.70;;;0.00;99.90;;;;;;5123708;28;20454;-49
2022/01/18 07:01:19;;;;;;;19.10;4.60;;;0.10;99.90;;;;;;5139182;28;20511;-47
2022/01/18 07:03:50;;;;;;;13.40;4.90;;;0.10;99.90;;;;;;5122358;28;20434;-47
2022/01/18 07:06:20;;;;;;;24.33;4.33;;;0.10;99.90;;;;;;5139429;28;20536;-48
2022/01/18 07:08:51;;;;;;;30.17;5.17;;;0.20;99.90;;;;;;5124519;28;20303;-48
2022/01/18 07:11:21;;;;;;;26.07;4.90;;;0.30;99.90;;;;;;5137229;28;20212;-50
2022/01/18 07:13:52;;;;;;;22.90;5.07;;;0.30;99.90;;;;;;5136609;28;20188;-49
2022/01/18 07:16:23;;;;;;;39.37;5.40;;;0.40;99.90;;;;;;5124182;28;20209;-48
2022/01/18 07:18:53;;;;;;;20.63;4.90;;;0.40;99.90;;;;;;5123874;28;20567;-50
2022/01/18 07:21:24;;;;;;;19.17;4.73;;;0.40;99.90;;;;;;5121066;28;20586;-48
2022/01/18 07:24:03;;;;;;;34.80;5.03;;;0.60;99.90;;;;;;5140895;28;20211;-48
2022/01/18 07:26:34;;;;;;;23.83;4.60;;;0.70;99.90;;;;;;5126797;28;20656;-48
2022/01/18 07:29:07;;;;;;;24.30;4.67;;;0.90;99.90;;;;;;5134795;28;20451;-48
2022/01/18 07:31:37;;;;;;;24.80;4.70;;;1.10;99.90;;;;;;5105862;28;20180;-48
2022/01/18 07:34:09;;;;;;;14.80;4.30;;;1.20;99.90;;;;;;5127640;28;21010;-49
2022/01/18 07:36:39;;;;;;;23.33;6.60;;;1.40;99.90;;;;;;5137491;28;20210;-48
2022/01/18 07:39:10;;;;;;;25.70;4.93;;;1.50;99.90;;;;;;5117574;28;20505;-48
2022/01/18 07:41:41;;;;;;;30.00;6.40;;;1.60;99.90;;;;;;5136239;28;20192;-48
2022/01/18 07:44:11;;;;;;;11.93;5.20;;;1.70;99.90;;;;;;5136771;28;20428;-48
2022/01/18 07:46:42;;;;;;;22.23;5.40;;;1.80;99.90;;;;;;5121324;28;20223;-48
2022/01/18 07:49:12;;;;;;;34.40;5.80;;;1.80;99.90;;;;;;5143365;28;20197;-50
2022/01/18 07:51:43;;;;;;;28.57;5.47;;;2.00;99.90;;;;;;5118260;28;20211;-48
2022/01/18 07:54:14;;;;;;;20.40;5.03;;;2.00;99.90;;;;;;5143901;28;20184;-49
2022/01/18 07:56:44;;;;;;;19.43;5.00;;;2.10;99.90;;;;;;5145001;28;20185;-48
2022/01/18 07:59:15;;;;;;;17.93;4.80;;;2.20;99.90;;;;;;5134443;28;20571;-48
2022/01/18 08:01:45;;;;;;;22.60;4.67;;;2.30;99.90;;;;;;5125976;28;20181;-48
2022/01/18 08:04:16;;;;;;;14.30;4.50;;;2.40;99.90;;;;;;5148517;28;20186;-49
2022/01/18 08:06:47;;;;;;;12.63;4.37;;;2.50;99.90;;;;;;5131029;28;20181;-49
2022/01/18 08:09:19;;;;;;;19.67;3.70;;;2.60;99.90;;;;;;5148374;28;20229;-48
2022/01/18 08:11:52;;;;;;;16.50;3.77;;;2.70;99.90;;;;;;5146920;28;20178;-49
2022/01/18 08:14:25;;;;;;;21.80;5.20;;;2.80;99.90;;;;;;5146286;28;20447;-48
2022/01/18 08:17:04;;;;;;;20.00;4.17;;;2.80;99.90;;;;;;5141766;28;20919;-48
2022/01/18 08:19:36;;;;;;;27.90;4.40;;;2.80;99.90;;;;;;5127506;28;20474;-49
2022/01/18 08:22:07;;;;;;;17.80;4.53;;;2.90;99.90;;;;;;5127122;28;20425;-47
2022/01/18 08:24:38;;;;;;;18.57;4.40;;;2.90;99.90;;;;;;5147123;28;20439;-48
2022/01/18 08:27:09;;;;;;;20.03;3.60;;;2.90;99.90;;;;;;5142320;28;20914;-47
2022/01/18 08:29:40;;;;;;;15.33;3.90;;;2.90;99.90;;;;;;5121437;28;20198;-48
2022/01/18 08:32:10;;;;;;;18.73;4.53;;;3.00;99.90;;;;;;5139134;28;20515;-48
2022/01/18 08:34:41;;;;;;;27.50;4.97;;;3.00;99.90;;;;;;5126177;28;20606;-49
2022/01/18 08:37:11;;;;;;;10.77;3.70;;;3.10;99.90;;;;;;5135884;28;20186;-48
2022/01/18 08:39:42;;;;;;;20.17;3.83;;;3.20;99.90;;;;;;5121490;28;20224;-49
2022/01/18 08:42:13;;;;;;;26.93;4.77;;;3.20;99.90;;;;;;5105547;28;20249;-48
2022/01/18 08:44:47;;;;;;;20.03;4.13;;;3.20;99.90;;;;;;5137744;28;21579;-48
2022/01/18 08:47:17;;;;;;;12.53;4.33;;;3.30;99.90;;;;;;5126271;28;20948;-49
2022/01/18 08:49:48;;;;;;;15.87;4.13;;;3.40;99.90;;;;;;5127239;28;20453;-48
2022/01/18 08:52:19;;;;;;;34.77;4.73;;;3.40;99.90;;;;;;5143242;28;20190;-48
2022/01/18 08:54:50;;;;;;;12.90;4.80;;;3.40;99.90;;;;;;5129506;28;20232;-49
2022/01/18 08:57:21;;;;;;;22.73;4.23;;;3.50;99.90;;;;;;5135549;28;20472;-48
2022/01/18 08:59:53;;;;;;;11.63;4.13;;;3.50;99.90;;;;;;5144558;28;20212;-49
2022/01/18 09:02:24;;;;;;;14.27;4.80;;;3.60;99.90;;;;;;5146056;28;20177;-49
2022/01/18 09:04:54;;;;;;;23.93;4.67;;;3.60;99.90;;;;;;5143514;28;20436;-50
2022/01/18 09:07:25;;;;;;;12.73;3.90;;;3.70;99.90;;;;;;5138480;28;20216;-48
2022/01/18 09:10:03;;;;;;;12.63;4.67;;;3.70;99.90;;;;;;5126063;28;20190;-48
2022/01/18 09:12:37;;;;;;;20.80;5.50;;;3.80;99.90;;;;;;5136017;28;20182;-48
2022/01/18 09:15:12;;;;;;;24.30;4.90;;;3.80;99.90;;;;;;5139300;28;20436;-48
2022/01/18 09:17:43;;;;;;;13.40;5.03;;;3.80;99.90;;;;;;5124033;28;20441;-48
2022/01/18 09:20:14;;;;;;;15.23;4.40;;;3.90;99.90;;;;;;5142928;28;20469;-50
2022/01/18 09:22:48;;;;;;;17.00;5.30;;;4.00;99.90;;;;;;5139762;28;20197;-48
2022/01/18 09:25:25;;;;;;;12.43;4.10;;;4.10;99.90;;;;;;5123297;28;20433;-48
2022/01/18 09:27:56;;;;;;;24.27;5.30;;;4.20;99.90;;;;;;5110000;28;20457;-48
2022/01/18 09:30:29;;;;;;;13.43;4.10;;;4.20;99.90;;;;;;5125798;28;20445;-48
2022/01/18 09:32:59;;;;;;;11.93;4.10;;;4.40;99.90;;;;;;5141070;28;20450;-49
2022/01/18 09:35:30;;;;;;;22.47;5.03;;;4.40;99.90;;;;;;5125351;28;20433;-50
2022/01/18 09:40:39;;;;;;;21.10;5.00;;;4.50;99.90;;;;;;5156025;28;20252;-52
2022/01/18 09:43:13;;;;;;;8.33;4.57;;;4.40;99.90;;;;;;5166383;28;20867;-53
2022/01/18 09:45:45;;;;;;;15.83;4.20;;;4.50;99.90;;;;;;5151024;28;20433;-54
2022/01/18 09:48:16;;;;;;;14.40;4.53;;;4.50;99.90;;;;;;5167631;28;20513;-55
2022/01/18 09:50:48;;;;;;;12.77;4.20;;;4.50;99.90;;;;;;5148885;28;20557;-53
2022/01/18 09:53:19;;;;;;;17.30;4.40;;;4.60;99.90;;;;;;5163350;28;20440;-54
2022/01/18 09:55:53;;;;;;;13.03;4.57;;;4.70;99.90;;;;;;5165892;28;20463;-53
2022/01/18 09:58:23;;;;;;;13.47;3.97;;;4.80;99.90;;;;;;5168042;28;20202;-51
2022/01/18 10:00:55;;;;;;;12.33;3.60;;;4.90;99.90;;;;;;5168529;28;20473;-52
2022/01/18 10:03:31;;;;;;;15.93;5.00;;;4.90;99.90;;;;;;5169359;28;20183;-52
2022/01/18 10:06:03;;;;;;;16.80;4.40;;;4.80;99.90;;;;;;5160855;28;20529;-53
2022/01/18 10:08:37;;;;;;;10.80;4.83;;;4.90;99.90;;;;;;5147441;28;20508;-54
2022/01/18 10:11:17;;;;;;;22.60;3.80;;;5.00;99.90;;;;;;5130677;28;20509;-53
2022/01/18 10:13:49;;;;;;;16.43;4.17;;;5.10;99.90;;;;;;5151365;28;20489;-53
2022/01/18 10:16:23;;;;;;;17.90;6.13;;;5.20;99.90;;;;;;5151195;28;20437;-54
2022/01/18 10:19:02;;;;;;;10.33;3.63;;;5.20;99.90;;;;;;5161445;28;20515;-52
2022/01/18 10:21:39;;;;;;;19.20;4.20;;;5.10;99.90;;;;;;5162561;28;20491;-54
2022/01/18 10:24:22;;;;;;;9.53;3.40;;;5.10;99.90;;;;;;5147082;28;20426;-52
2022/01/18 10:26:55;;;;;;;14.77;4.07;;;5.10;99.90;;;;;;5158623;28;20446;-53
2022/01/18 10:29:38;;;;;;;18.20;4.70;;;5.10;99.90;;;;;;5167954;28;20453;-52
2022/01/18 10:32:20;;;;;;;7.50;3.57;;;5.10;99.90;;;;;;5164316;28;20759;-51
2022/01/18 10:37:29;;;;;;;11.37;3.37;;;5.10;99.90;;;;;;5165619;28;20451;-52
2022/01/18 10:40:01;;;;;;;18.47;3.87;;;5.10;99.90;;;;;;5162566;28;20474;-53
2022/01/18 10:42:49;;;;;;;7.40;2.97;;;5.20;99.90;;;;;;5168169;28;20523;-50
2022/01/18 10:45:31;;;;;;;13.67;3.77;;;5.20;99.90;;;;;;5162596;28;20864;-51
2022/01/18 10:48:13;;;;;;;9.60;2.93;;;5.20;99.90;;;;;;5169824;28;20433;-52
2022/01/18 10:50:46;;;;;;;14.10;3.13;;;5.20;99.90;;;;;;5146116;28;20445;-51
2022/01/18 10:53:22;;;;;;;8.17;3.20;;;5.30;99.90;;;;;;5150368;28;20800;-52
2022/01/18 10:56:12;;;;;;;12.87;3.33;;;5.40;99.90;;;;;;5163366;28;20440;-51
2022/01/18 10:58:48;;;;;;;16.60;3.93;;;5.60;99.90;;;;;;5148226;28;20826;-51
2022/01/18 11:01:20;;;;;;;8.23;3.10;;;5.70;99.90;;;;;;5160240;28;20468;-53
2022/01/18 11:04:14;;;;;;;10.53;2.73;;;5.60;99.90;;;;;;5147788;28;20488;-51
2022/01/18 11:07:00;;;;;;;22.93;3.43;;;5.50;99.90;;;;;;5160099;28;20512;-53
2022/01/18 11:09:32;;;;;;;11.60;4.43;;;5.60;99.90;;;;;;5164624;28;20559;-51
2022/01/18 11:12:05;;;;;;;7.33;3.57;;;5.80;99.90;;;;;;5147749;28;20434;-51
2022/01/18 11:14:37;;;;;;;10.33;2.70;;;5.90;99.90;;;;;;5166962;28;20485;-50
2022/01/18 11:17:23;;;;;;;25.93;3.30;;;6.00;99.90;;;;;;5164269;28;20427;-51
2022/01/18 11:19:56;;;;;;;19.03;5.20;;;5.80;99.90;;;;;;5163978;28;21025;-51
2022/01/18 11:22:27;;;;;;;19.33;3.13;;;5.90;99.90;;;;;;5164658;28;20430;-52
2022/01/18 11:25:01;;;;;;;9.77;2.90;;;5.90;99.90;;;;;;5150098;28;20498;-50
2022/01/18 11:27:35;;;;;;;13.60;4.50;;;6.00;99.90;;;;;;5166189;28;20194;-51
2022/01/18 11:30:12;;;;;;;11.10;2.37;;;6.00;99.90;;;;;;5162302;28;20951;-53
2022/01/18 11:32:44;;;;;;;8.23;3.50;;;6.00;99.90;;;;;;5144624;28;20446;-51
2022/01/18 11:35:19;;;;;;;12.70;2.60;;;5.90;99.90;;;;;;5144515;28;20954;-54
2022/01/18 11:38:27;;;;;;;12.33;2.80;;;6.00;99.90;;;;;;5144532;28;20478;-51
2022/01/18 11:40:58;;;;;;;19.37;3.13;;;6.10;99.90;;;;;;5171834;28;20470;-53
2022/01/18 11:43:41;;;;;;;13.60;2.40;;;6.10;99.90;;;;;;5165730;28;20454;-50
2022/01/18 11:46:20;;;;;;;13.93;3.27;;;6.00;99.90;;;;;;5136023;28;20184;-51
2022/01/18 11:49:09;;;;;;;14.57;2.57;;;5.90;99.90;;;;;;5156124;28;20887;-52
2022/01/18 11:51:48;;;;;;;12.73;2.00;;;5.90;99.90;;;;;;5147100;28;20538;-51
2022/01/18 11:57:24;;;;;;;4.30;2.53;;;6.00;99.90;;;;;;5163284;28;20432;-51
2022/01/18 12:00:05;;;;;;;8.33;2.70;;;6.10;99.90;;;;;;5165332;28;20470;-52
2022/01/18 12:02:41;;;;;;;10.93;2.80;;;6.20;99.90;;;;;;5165167;28;20442;-52
2022/01/18 12:05:19;;;;;;;20.77;1.63;;;6.30;99.90;;;;;;5160889;28;20930;-51
2022/01/18 12:07:53;;;;;;;8.50;2.27;;;6.50;99.90;;;;;;5165974;28;20423;-53
2022/01/18 12:10:38;;;;;;;5.60;2.73;;;6.30;99.90;;;;;;5147390;28;20469;-51
2022/01/18 12:13:25;;;;;;;13.87;3.80;;;6.20;99.90;;;;;;5164101;28;20794;-52
2022/01/18 12:15:59;;;;;;;4.53;2.30;;;6.10;99.90;;;;;;5146573;28;20439;-52
2022/01/18 12:18:33;;;;;;;7.30;3.50;;;6.20;99.90;;;;;;5128224;28;21011;-51
2022/01/18 12:21:19;;;;;;;9.60;2.93;;;6.10;99.90;;;;;;5164272;28;20529;-51
2022/01/18 12:23:49;;;;;;;12.97;2.77;;;6.10;99.90;;;;;;5164289;28;20545;-52
2022/01/18 12:26:32;;;;;;;14.00;7.10;;;6.20;99.90;;;;;;5147431;28;20489;-50
2022/01/18 12:34:47;;;;;;;6.10;3.63;;;6.20;99.90;;;;;;5158642;28;20439;-53
2022/01/18 12:37:19;;;;;;;8.10;3.00;;;6.20;99.90;;;;;;5144141;28;20484;-53
2022/01/18 12:39:50;;;;;;;5.60;2.37;;;6.20;99.90;;;;;;5145680;28;20468;-51
2022/01/18 12:45:13;;;;;;;3.83;1.73;;;6.20;99.90;;;;;;5160482;28;20555;-51
2022/01/18 12:47:48;;;;;;;8.60;3.50;;;6.30;99.90;;;;;;5163607;28;20951;-51
2022/01/18 12:50:23;;;;;;;11.83;4.20;;;6.30;99.90;;;;;;5159921;28;20550;-52
2022/01/18 12:52:57;;;;;;;9.30;4.50;;;6.40;99.90;;;;;;5144760;28;20515;-51
2022/01/18 12:55:46;;;;;;;15.87;3.47;;;6.40;99.90;;;;;;5145025;28;20501;-51
2022/01/18 12:58:19;;;;;;;14.30;7.40;;;6.40;99.90;;;;;;5169079;28;20961;-53
2022/01/18 13:00:59;;;;;;;13.97;6.50;;;6.30;99.90;;;;;;5152714;28;20459;-53
2022/01/18 13:03:36;;;;;;;15.63;3.83;;;6.20;99.90;;;;;;5162667;28;20447;-51
2022/01/18 13:06:17;;;;;;;9.50;3.07;;;6.30;99.90;;;;;;5164062;28;20946;-52
2022/01/18 13:09:00;;;;;;;32.13;8.47;;;6.30;99.90;;;;;;5154258;28;20467;-52
2022/01/18 13:11:34;;;;;;;9.17;3.40;;;6.30;99.90;;;;;;5162908;28;20436;-54
2022/01/18 13:14:09;;;;;;;7.20;2.17;;;6.20;99.90;;;;;;5160627;28;20427;-51
2022/01/18 13:23:07;;;;;;;2.10;1.50;;;6.10;99.90;;;;;;5167624;28;20760;-52
2022/01/18 13:25:14;;;;;;;4.90;2.20;;;6.20;99.90;;;;;;5158979;28;20446;-54
2022/01/18 13:27:50;;;;;;;9.20;2.53;;;6.20;99.90;;;;;;5159569;28;20865;-53
2022/01/18 13:30:26;;;;;;;4.90;2.43;;;6.20;99.90;;;;;;5162307;28;20452;-52
2022/01/18 13:33:00;;;;;;;9.37;2.07;;;6.10;99.90;;;;;;5163681;28;20432;-52
2022/01/18 13:35:31;;;;;;;3.80;2.00;;;6.00;99.90;;;;;;5142944;28;20939;-51
2022/01/18 13:38:05;;;;;;;5.23;2.70;;;6.00;99.90;;;;;;5163534;28;20478;-50
2022/01/18 13:40:36;;;;;;;39.00;11.53;;;6.10;99.90;;;;;;5145192;28;20982;-52
2022/01/18 13:43:12;;;;;;;7.93;3.17;;;6.20;99.90;;;;;;5171599;28;20423;-50
2022/01/18 13:45:43;;;;;;;23.53;9.00;;;6.00;99.90;;;;;;5149954;28;20527;-51
2022/01/18 13:48:16;;;;;;;18.03;4.33;;;5.90;99.90;;;;;;5167651;28;21003;-50
2022/01/18 13:50:48;;;;;;;25.83;5.83;;;5.80;99.90;;;;;;5144409;28;20433;-50
2022/01/18 13:53:22;;;;;;;56.47;15.83;;;5.80;99.90;;;;;;5166603;28;20928;-50
2022/01/18 13:55:59;;;;;;;19.70;5.40;;;5.80;99.90;;;;;;5166472;28;20462;-53
2022/01/18 13:58:36;;;;;;;13.77;4.70;;;5.80;99.90;;;;;;5147161;28;20467;-52
2022/01/18 14:01:08;;;;;;;7.13;2.27;;;5.80;99.90;;;;;;5158298;28;20506;-51
2022/01/18 14:03:41;;;;;;;12.83;3.27;;;5.80;99.90;;;;;;5160304;28;20431;-53
2022/01/18 14:06:15;;;;;;;11.30;4.87;;;5.80;99.90;;;;;;5160859;28;20570;-53
2022/01/18 14:08:50;;;;;;;15.93;6.30;;;5.70;99.90;;;;;;5146221;28;20534;-52
2022/01/18 14:11:23;;;;;;;12.47;3.57;;;5.80;99.90;;;;;;5165949;28;20799;-51
2022/01/18 14:13:55;;;;;;;9.70;2.50;;;5.70;99.90;;;;;;5149288;28;20447;-50
2022/01/18 14:16:33;;;;;;;3.00;1.70;;;5.60;99.90;;;;;;5163048;28;21360;-58
2022/01/18 14:19:09;;;;;;;4.43;1.67;;;5.70;99.90;;;;;;5161394;28;20562;-52
2022/01/18 14:21:45;;;;;;;20.57;2.83;;;5.60;99.90;;;;;;5165163;28;20486;-51
2022/01/18 14:24:20;;;;;;;2.50;1.97;;;5.70;99.90;;;;;;5143701;28;20834;-53
2022/01/18 14:26:54;;;;;;;4.00;2.37;;;5.60;99.90;;;;;;5166751;28;20453;-51
2022/01/18 14:29:42;;;;;;;8.37;2.67;;;5.60;99.90;;;;;;5164869;28;20986;-51
2022/01/18 14:32:21;;;;;;;12.97;2.43;;;5.60;99.90;;;;;;5140824;28;20441;-52
2022/01/18 14:34:53;;;;;;;9.27;1.47;;;5.60;99.90;;;;;;5171583;28;20438;-52
2022/01/18 14:37:36;;;;;;;9.70;2.10;;;5.50;99.90;;;;;;5164133;28;20428;-52
2022/01/18 14:40:14;;;;;;;3.17;1.50;;;5.60;99.90;;;;;;5139117;28;20474;-52
2022/01/18 14:42:51;;;;;;;4.20;1.63;;;5.60;99.90;;;;;;5144243;28;20431;-53